createdAt,value
2022-08-10T00:00:12.183Z,62.48
2022-08-10T00:02:41.065Z,62.57
2022-08-10T00:05:11.393Z,62.85
2022-08-10T00:07:43.165Z,62.90
2022-08-10T00:10:13.601Z,62.87
2022-08-10T00:12:54.425Z,62.99
2022-08-10T00:15:51.947Z,63.05
2022-08-10T00:17:47.017Z,63.11
2022-08-10T00:20:16.472Z,63.25
2022-08-10T00:22:52.964Z,63.36
2022-08-10T00:25:17.897Z,63.69
2022-08-10T00:28:01.623Z,64.01
2022-08-10T00:30:19.781Z,64.19
2022-08-10T00:32:49.179Z,64.26
2022-08-10T00:35:18.639Z,64.26
2022-08-10T00:38:09.402Z,64.18
2022-08-10T00:40:39.436Z,64.25
2022-08-10T00:43:23.319Z,64.21
2022-08-10T00:45:58.778Z,64.22
2022-08-10T00:48:24.620Z,64.28
2022-08-10T00:50:56.322Z,64.25
2022-08-10T00:53:27.530Z,64.30
2022-08-10T00:57:14.045Z,64.49
2022-08-10T00:58:31.184Z,64.66
2022-08-10T01:01:01.374Z,64.81
2022-08-10T01:04:39.612Z,64.88
2022-08-10T01:06:18.776Z,64.97
2022-08-10T01:09:02.666Z,65.17
2022-08-10T01:12:41.010Z,65.17
2022-08-10T01:14:38.543Z,65.22
2022-08-10T01:17:17.963Z,65.33
2022-08-10T01:19:58.880Z,65.40
2022-08-10T01:22:49.073Z,65.56
2022-08-10T01:26:12.329Z,65.74
2022-08-10T01:28:44.326Z,65.94
2022-08-10T01:31:16.471Z,66.26
2022-08-10T01:33:58.893Z,66.45
2022-08-10T01:36:32.341Z,66.85
2022-08-10T01:39:04.054Z,67.08
2022-08-10T01:41:46.522Z,67.19
2022-08-10T01:44:20.160Z,67.29
2022-08-10T01:46:56.723Z,67.44
2022-08-10T01:49:23.955Z,67.27
2022-08-10T01:52:00.457Z,66.86
2022-08-10T01:54:29.408Z,66.40
2022-08-10T01:56:58.729Z,65.64
2022-08-10T01:59:35.326Z,64.42
2022-08-10T02:02:10.839Z,63.82
2022-08-10T02:04:42.162Z,63.16
2022-08-10T02:07:16.327Z,62.90
2022-08-10T02:09:51.505Z,62.99
2022-08-10T02:12:23.872Z,62.77
2022-08-10T02:15:02.125Z,62.37
2022-08-10T02:17:58.374Z,62.36
2022-08-10T02:20:23.110Z,62.26
2022-08-10T02:22:58.836Z,61.91
2022-08-10T02:25:42.166Z,61.36
2022-08-10T02:28:00.133Z,61.18
2022-08-10T02:30:29.254Z,61.48
2022-08-10T02:32:59.316Z,61.53
2022-08-10T02:35:33.485Z,61.30
2022-08-10T02:38:03.986Z,61.31
2022-08-10T02:45:01.996Z,61.43
2022-08-10T02:45:23.046Z,61.38
2022-08-10T02:46:05.894Z,61.76
2022-08-10T02:48:43.467Z,62.32
2022-08-10T02:51:18.380Z,62.97
2022-08-10T02:53:56.133Z,63.86
2022-08-10T02:56:45.658Z,64.54
2022-08-10T02:59:18.397Z,65.16
2022-08-10T03:01:49.502Z,65.72
2022-08-10T03:04:57.859Z,66.27
2022-08-10T03:07:05.559Z,66.73
2022-08-10T03:09:35.597Z,67.12
2022-08-10T03:12:35.897Z,67.51
2022-08-10T03:14:37.377Z,67.75
2022-08-10T03:17:07.951Z,68.46
2022-08-10T03:20:34.894Z,68.82
2022-08-10T03:22:08.606Z,69.03
2022-08-10T03:24:37.798Z,69.30
2022-08-10T03:27:07.024Z,69.47
2022-08-10T03:30:32.021Z,69.61
2022-08-10T03:32:08.404Z,69.75
2022-08-10T03:34:38.020Z,69.81
2022-08-10T03:37:07.550Z,69.88
2022-08-10T03:39:36.752Z,70.04
2022-08-10T03:42:07.641Z,70.17
2022-08-10T03:44:36.651Z,70.24
2022-08-10T03:47:16.106Z,70.28
2022-08-10T03:49:38.664Z,70.37
2022-08-10T03:52:07.732Z,70.51
2022-08-10T03:54:37.219Z,70.65
2022-08-10T03:57:06.655Z,70.70
2022-08-10T03:59:36.846Z,70.71
2022-08-10T04:02:43.941Z,70.67
2022-08-10T04:04:40.618Z,70.74
2022-08-10T04:07:09.774Z,70.89
2022-08-10T04:09:53.586Z,70.93
2022-08-10T04:12:10.291Z,71.02
2022-08-10T04:14:49.385Z,71.03
2022-08-10T04:17:13.951Z,71.09
2022-08-10T04:19:48.711Z,71.12
2022-08-10T04:22:22.432Z,71.13
2022-08-10T04:24:59.403Z,71.07
2022-08-10T04:27:29.596Z,71.06
2022-08-10T04:29:59.243Z,70.92
2022-08-10T04:32:32.092Z,70.69
2022-08-10T04:35:01.184Z,70.62
2022-08-10T04:37:30.697Z,70.62
2022-08-10T04:40:00.004Z,70.51
2022-08-10T04:42:29.739Z,70.48
2022-08-10T04:44:58.651Z,70.44
2022-08-10T04:47:57.732Z,70.43
2022-08-10T04:49:58.380Z,70.11
2022-08-10T04:52:28.190Z,70.17
2022-08-10T04:54:57.362Z,69.93
2022-08-10T04:57:27.665Z,69.63
2022-08-10T04:59:57.310Z,69.72
2022-08-10T05:02:31.234Z,69.35
2022-08-10T05:04:58.061Z,68.88
2022-08-10T05:07:27.618Z,68.65
2022-08-10T05:10:04.109Z,68.65
2022-08-10T05:12:27.756Z,68.81
2022-08-10T05:14:58.232Z,68.54
2022-08-10T05:17:27.654Z,68.25
2022-08-10T05:20:02.252Z,68.14
2022-08-10T05:22:27.181Z,68.09
2022-08-10T05:24:56.639Z,68.16
2022-08-10T05:27:25.499Z,68.09
2022-08-10T05:30:01.590Z,68.10
2022-08-10T05:32:25.581Z,67.89
2022-08-10T05:34:54.546Z,67.87
2022-08-10T05:38:10.909Z,68.08
2022-08-10T05:39:56.716Z,68.08
2022-08-10T05:42:27.056Z,67.96
2022-08-10T05:44:56.333Z,68.03
2022-08-10T05:47:26.504Z,67.83
2022-08-10T05:49:57.964Z,67.84
2022-08-10T05:52:27.413Z,68.06
2022-08-10T05:54:59.609Z,68.45
2022-08-10T05:57:27.416Z,68.69
2022-08-10T06:00:11.326Z,68.79
2022-08-10T06:02:38.808Z,68.97
2022-08-10T06:05:17.179Z,69.06
2022-08-10T06:08:04.768Z,69.28
2022-08-10T06:10:35.602Z,69.37
2022-08-10T06:13:30.313Z,69.43
2022-08-10T06:15:57.708Z,69.29
2022-08-10T06:18:26.797Z,69.19
2022-08-10T06:20:56.316Z,69.04
2022-08-10T06:23:27.919Z,69.01
2022-08-10T06:26:10.722Z,68.61
2022-08-10T06:28:31.394Z,68.51
2022-08-10T06:31:01.397Z,68.48
2022-08-10T06:33:31.682Z,68.32
2022-08-10T06:36:01.117Z,68.23
2022-08-10T06:38:32.854Z,68.06
2022-08-10T06:41:07.070Z,67.89
2022-08-10T06:43:40.446Z,68.05
2022-08-10T06:46:13.097Z,68.08
2022-08-10T06:48:54.237Z,68.16
2022-08-10T06:51:29.808Z,68.27
2022-08-10T06:54:03.311Z,68.01
2022-08-10T06:56:39.846Z,68.26
2022-08-10T06:59:30.647Z,68.53
2022-08-10T07:02:12.903Z,68.74
2022-08-10T07:04:59.398Z,68.87
2022-08-10T07:07:31.876Z,68.68
2022-08-10T07:10:02.938Z,68.68
2022-08-10T07:12:32.418Z,68.45
2022-08-10T07:15:01.624Z,68.25
2022-08-10T07:17:33.880Z,68.11
2022-08-10T07:20:03.130Z,67.69
2022-08-10T07:23:22.771Z,67.57
2022-08-10T07:25:07.597Z,67.67
2022-08-10T07:27:59.195Z,67.57
2022-08-10T07:30:13.160Z,67.55
2022-08-10T07:32:48.446Z,67.33
2022-08-10T07:35:23.329Z,67.41
2022-08-10T07:37:57.097Z,67.23
2022-08-10T07:40:52.762Z,67.17
2022-08-10T07:43:34.408Z,67.14
2022-08-10T07:46:15.872Z,67.17
2022-08-10T07:48:53.847Z,67.12
2022-08-10T07:51:28.644Z,66.48
2022-08-10T07:54:05.948Z,65.88
2022-08-10T07:56:48.866Z,65.20
2022-08-10T07:59:17.740Z,65.25
2022-08-10T08:01:54.982Z,65.54
2022-08-10T08:04:25.977Z,65.55
2022-08-10T08:06:57.997Z,65.64
2022-08-10T08:09:28.219Z,65.28
2022-08-10T08:11:59.572Z,65.14
2022-08-10T08:14:30.144Z,64.48
2022-08-10T08:17:00.926Z,64.77
2022-08-10T08:19:37.643Z,64.45
2022-08-10T08:24:06.198Z,63.96
2022-08-10T08:24:36.785Z,63.93
2022-08-10T08:27:07.488Z,63.83
2022-08-10T08:29:37.690Z,63.33
2022-08-10T08:32:08.248Z,63.31
2022-08-10T08:34:40.674Z,63.40
2022-08-10T08:37:11.203Z,63.50
2022-08-10T08:39:44.190Z,63.56
2022-08-10T08:42:38.114Z,63.67
2022-08-10T08:46:01.273Z,63.87
2022-08-10T08:48:35.072Z,64.19
2022-08-10T08:52:17.030Z,63.94
2022-08-10T08:54:43.917Z,63.88
2022-08-10T08:57:53.726Z,63.66
2022-08-10T09:00:46.623Z,63.98
2022-08-10T09:03:43.672Z,64.28
2022-08-10T09:06:39.118Z,64.20
2022-08-10T09:09:39.538Z,64.02
2022-08-10T09:12:47.786Z,63.65
2022-08-10T09:15:41.079Z,63.58
2022-08-10T09:18:01.793Z,63.63
2022-08-10T09:21:09.392Z,63.80
2022-08-10T09:24:06.454Z,64.39
2022-08-10T09:26:51.741Z,64.33
2022-08-10T09:29:28.396Z,65.79
2022-08-10T09:33:05.815Z,66.25
2022-08-10T09:36:23.352Z,66.22
2022-08-10T09:38:01.735Z,66.28
2022-08-10T09:40:59.334Z,66.71
2022-08-10T09:43:40.352Z,66.33
2022-08-10T09:46:36.986Z,64.72
2022-08-10T09:49:54.042Z,63.53
2022-08-10T09:52:27.706Z,63.33
2022-08-10T09:56:17.824Z,62.90
2022-08-10T09:58:06.732Z,62.08
2022-08-10T10:00:41.477Z,61.52
2022-08-10T10:03:25.844Z,61.58
2022-08-10T10:06:00.066Z,61.50
2022-08-10T10:08:38.319Z,61.41
2022-08-10T10:11:31.107Z,61.28
2022-08-10T10:14:26.234Z,61.19
2022-08-10T10:17:10.141Z,61.02
2022-08-10T10:19:51.046Z,61.18
2022-08-10T10:22:47.162Z,61.43
2022-08-10T10:25:50.253Z,61.62
2022-08-10T10:28:20.466Z,61.79
2022-08-10T10:31:28.583Z,61.35
2022-08-10T10:34:27.887Z,61.27
2022-08-10T10:36:58.335Z,61.06
2022-08-10T10:39:27.860Z,61.33
2022-08-10T10:42:44.886Z,61.47
2022-08-10T10:45:25.778Z,61.58
2022-08-10T10:48:24.358Z,61.54
2022-08-10T10:51:16.616Z,61.24
2022-08-10T10:54:24.920Z,61.69
2022-08-10T10:57:20.339Z,61.68
2022-08-10T11:00:08.230Z,61.63
2022-08-10T11:02:56.902Z,61.37
2022-08-10T11:05:57.126Z,61.15
2022-08-10T11:08:30.939Z,61.12
2022-08-10T11:11:13.076Z,61.13
2022-08-10T11:14:25.726Z,60.98
2022-08-10T11:16:57.288Z,61.12
2022-08-10T11:20:01.599Z,61.35
2022-08-10T11:22:54.302Z,61.46
2022-08-10T11:25:33.645Z,61.76
2022-08-10T11:28:20.555Z,61.87
2022-08-10T11:31:06.105Z,61.62
2022-08-10T11:34:49.140Z,61.53
2022-08-10T11:36:51.709Z,61.66
2022-08-10T11:39:54.130Z,61.42
2022-08-10T11:42:35.880Z,61.67
2022-08-10T11:45:12.655Z,61.24
2022-08-10T11:47:54.583Z,61.21
2022-08-10T11:50:35.416Z,60.87
2022-08-10T11:53:10.437Z,60.36
2022-08-10T11:55:40.195Z,59.88
2022-08-10T11:58:31.356Z,59.72
2022-08-10T12:01:04.696Z,58.85
2022-08-10T12:03:38.981Z,57.97
2022-08-10T12:06:13.807Z,58.15
2022-08-10T12:10:03.452Z,57.90
2022-08-10T12:11:33.334Z,57.94
2022-08-10T12:14:21.445Z,57.37
2022-08-10T12:16:46.652Z,57.20
2022-08-10T12:19:28.849Z,56.85
2022-08-10T12:22:12.767Z,56.72
2022-08-10T12:25:00.192Z,56.85
2022-08-10T12:27:41.413Z,56.71
2022-08-10T12:30:16.858Z,56.40
2022-08-10T12:33:04.761Z,56.04
2022-08-10T12:36:18.441Z,55.80
2022-08-10T12:39:08.096Z,55.93
2022-08-10T12:41:56.678Z,56.27
2022-08-10T12:44:41.630Z,55.85
2022-08-10T12:47:29.832Z,55.60
2022-08-10T12:50:29.939Z,55.73
2022-08-10T12:53:06.737Z,55.62
2022-08-10T12:55:39.583Z,55.72
2022-08-10T12:59:00.209Z,56.31
2022-08-10T13:01:14.776Z,56.40
2022-08-10T13:04:21.886Z,56.38
2022-08-10T13:06:02.054Z,56.39
2022-08-10T13:08:48.976Z,55.89
2022-08-10T13:12:33.910Z,56.15
2022-08-10T13:13:58.719Z,55.95
2022-08-10T13:16:31.268Z,56.03
2022-08-10T13:19:04.634Z,55.86
2022-08-10T13:21:37.136Z,55.57
2022-08-10T13:24:23.884Z,55.48
2022-08-10T13:27:25.107Z,55.51
2022-08-10T13:29:51.356Z,55.75
2022-08-10T13:32:31.233Z,56.12
2022-08-10T13:35:15.599Z,56.08
2022-08-10T13:37:48.203Z,56.15
2022-08-10T13:40:21.591Z,56.30
2022-08-10T13:42:53.974Z,56.49
2022-08-10T13:45:26.388Z,56.70
2022-08-10T13:48:11.218Z,56.66
2022-08-10T13:50:42.837Z,56.75
2022-08-10T13:53:15.687Z,57.13
2022-08-10T13:55:55.262Z,57.35
2022-08-10T13:58:29.772Z,57.21
2022-08-10T14:01:14.233Z,57.42
2022-08-10T14:03:46.777Z,57.70
2022-08-10T14:06:19.961Z,57.91
2022-08-10T14:08:56.499Z,58.15
2022-08-10T14:11:26.483Z,57.85
2022-08-10T14:13:58.806Z,57.73
2022-08-10T14:16:28.712Z,58.04
2022-08-10T14:19:01.734Z,58.37
2022-08-10T14:21:30.498Z,58.32
2022-08-10T14:23:59.066Z,58.33
2022-08-10T14:26:31.270Z,58.23
2022-08-10T14:29:06.661Z,58.38
2022-08-10T14:31:38.130Z,58.16
2022-08-10T14:34:10.797Z,57.93
2022-08-10T14:36:55.248Z,58.05
2022-08-10T14:39:35.610Z,57.95
2022-08-10T14:42:16.764Z,58.27
2022-08-10T14:44:59.005Z,58.25
2022-08-10T14:47:59.307Z,58.08
2022-08-10T14:50:00.548Z,58.14
2022-08-10T14:52:30.948Z,57.87
2022-08-10T14:55:04.400Z,57.77
2022-08-10T14:58:16.541Z,57.78
2022-08-10T15:00:25.521Z,57.80
2022-08-10T15:02:56.323Z,57.80
2022-08-10T15:05:23.455Z,57.75
2022-08-10T15:07:58.948Z,57.46
2022-08-10T15:10:25.272Z,57.68
2022-08-10T15:12:54.595Z,58.09
2022-08-10T15:15:27.981Z,57.85
2022-08-10T15:17:58.231Z,57.95
2022-08-10T15:20:28.650Z,57.90
2022-08-10T15:23:30.581Z,58.04
2022-08-10T15:25:57.756Z,58.20
2022-08-10T15:28:18.315Z,58.37
2022-08-10T15:30:56.254Z,58.37
2022-08-10T15:34:04.978Z,58.57
2022-08-10T15:36:37.265Z,58.59
2022-08-10T15:39:16.466Z,58.55
2022-08-10T15:41:58.077Z,58.68
2022-08-10T15:44:13.663Z,59.13
2022-08-10T15:46:52.170Z,59.47
2022-08-10T15:49:27.379Z,59.76
2022-08-10T15:52:09.715Z,59.56
2022-08-10T15:54:55.057Z,59.49
2022-08-10T15:57:29.485Z,59.60
2022-08-10T16:00:09.559Z,59.62
2022-08-10T16:02:55.447Z,59.66
2022-08-10T16:05:40.879Z,59.58
2022-08-10T16:08:04.522Z,59.50
2022-08-10T16:10:53.628Z,59.77
2022-08-10T16:13:51.037Z,59.46
2022-08-10T16:15:59.400Z,59.82
2022-08-10T16:18:31.431Z,59.93
2022-08-10T16:21:07.589Z,59.59
2022-08-10T16:23:40.955Z,59.24
2022-08-10T16:26:15.048Z,59.23
2022-08-10T16:28:48.453Z,59.35
2022-08-10T16:31:22.631Z,58.96
2022-08-10T16:33:55.518Z,58.61
2022-08-10T16:36:54.271Z,58.66
2022-08-10T16:39:59.314Z,58.65
2022-08-10T16:42:11.650Z,58.58
2022-08-10T16:45:05.864Z,58.57
2022-08-10T16:47:39.318Z,58.31
2022-08-10T16:50:10.275Z,58.20
2022-08-10T16:52:40.225Z,57.74
2022-08-10T16:55:23.696Z,57.96
2022-08-10T16:57:45.272Z,58.08
2022-08-10T17:00:19.049Z,58.41
2022-08-10T17:02:52.575Z,58.38
2022-08-10T17:06:03.652Z,58.64
2022-08-10T17:08:05.009Z,58.85
2022-08-10T17:10:35.532Z,59.28
2022-08-10T17:13:06.351Z,59.49
2022-08-10T17:15:35.805Z,59.67
2022-08-10T17:18:04.894Z,59.62
2022-08-10T17:20:41.327Z,59.35
2022-08-10T17:23:11.734Z,59.29
2022-08-10T17:25:45.799Z,59.43
2022-08-10T17:28:33.121Z,60.22
2022-08-10T17:30:57.953Z,59.66
2022-08-10T17:33:25.191Z,60.27
2022-08-10T17:35:55.188Z,60.77
2022-08-10T17:38:25.224Z,60.55
2022-08-10T17:41:13.213Z,60.58
2022-08-10T17:43:58.238Z,60.53
2022-08-10T17:46:15.103Z,60.78
2022-08-10T17:48:44.534Z,60.74
2022-08-10T17:51:15.212Z,60.84
2022-08-10T17:53:47.771Z,60.89
2022-08-10T17:56:17.956Z,60.47
2022-08-10T17:58:50.645Z,60.85
2022-08-10T18:01:42.108Z,60.99
2022-08-10T18:04:01.355Z,60.66
2022-08-10T18:06:30.616Z,60.36
2022-08-10T18:09:40.544Z,60.30
2022-08-10T18:12:27.741Z,60.20
2022-08-10T18:14:53.231Z,60.24
2022-08-10T18:17:25.612Z,60.27
2022-08-10T18:19:58.557Z,60.44
2022-08-10T18:22:27.366Z,60.72
2022-08-10T18:24:58.571Z,60.79
2022-08-10T18:27:46.557Z,60.89
2022-08-10T18:30:04.364Z,60.92
2022-08-10T18:32:35.559Z,60.64
2022-08-10T18:35:07.197Z,60.61
2022-08-10T18:37:36.828Z,60.41
2022-08-10T18:40:10.485Z,60.58
2022-08-10T18:42:50.247Z,60.66
2022-08-10T18:45:29.656Z,60.71
2022-08-10T18:48:11.081Z,60.65
2022-08-10T18:50:52.657Z,60.49
2022-08-10T18:53:33.327Z,60.33
2022-08-10T18:56:43.494Z,60.44
2022-08-10T19:00:08.447Z,60.54
2022-08-10T19:02:49.108Z,60.49
2022-08-10T19:06:07.417Z,60.31
2022-08-10T19:08:49.970Z,60.54
2022-08-10T19:11:56.726Z,60.62
2022-08-10T19:14:41.339Z,60.67
2022-08-10T19:18:03.795Z,60.65
2022-08-10T19:20:39.331Z,60.86
2022-08-10T19:23:32.127Z,60.94
2022-08-10T19:26:44.646Z,61.08
2022-08-10T19:30:12.533Z,61.29
2022-08-10T19:33:27.839Z,61.67
2022-08-10T19:36:14.600Z,61.88
2022-08-10T19:39:07.258Z,61.98
2022-08-10T19:41:46.400Z,62.34
2022-08-10T19:44:50.349Z,62.70
2022-08-10T19:47:37.782Z,62.86
2022-08-10T19:50:37.876Z,63.36
2022-08-10T19:53:24.815Z,63.29
2022-08-10T19:56:34.124Z,63.10
2022-08-10T19:59:10.371Z,63.17
2022-08-10T20:01:55.194Z,63.13
2022-08-10T20:04:20.189Z,63.23
2022-08-10T20:07:10.695Z,63.26
2022-08-10T20:09:51.348Z,63.27
2022-08-10T20:12:43.046Z,63.05
2022-08-10T20:15:20.660Z,62.86
2022-08-10T20:18:06.125Z,62.80
2022-08-10T20:20:49.840Z,62.71
2022-08-10T20:23:35.249Z,62.66
2022-08-10T20:26:13.335Z,62.67
2022-08-10T20:29:08.287Z,62.52
2022-08-10T20:31:41.501Z,62.67
2022-08-10T20:34:26.066Z,63.05
2022-08-10T20:37:09.812Z,63.86
2022-08-10T20:39:55.174Z,64.04
2022-08-10T20:42:36.205Z,64.51
2022-08-10T20:45:09.240Z,64.52
2022-08-10T20:47:54.095Z,64.77
2022-08-10T20:50:58.384Z,65.69
2022-08-10T20:53:29.365Z,66.15
2022-08-10T20:56:31.745Z,66.45
2022-08-10T20:59:33.772Z,67.68
2022-08-10T21:02:28.704Z,68.68
2022-08-10T21:05:03.748Z,69.62
2022-08-10T21:08:02.079Z,70.21
2022-08-10T21:11:05.803Z,70.72
2022-08-10T21:14:09.439Z,71.96
2022-08-10T21:17:19.255Z,72.86
2022-08-10T21:20:15.682Z,73.58
2022-08-10T21:22:47.588Z,74.71
2022-08-10T21:25:29.771Z,75.65
2022-08-10T21:28:29.430Z,75.99
2022-08-10T21:31:15.900Z,76.14
2022-08-10T21:34:32.374Z,76.46
2022-08-10T21:37:40.124Z,76.96
2022-08-10T21:41:18.322Z,77.83
2022-08-10T21:43:49.522Z,78.43
2022-08-10T21:47:03.809Z,78.97
2022-08-10T21:50:07.159Z,79.33
2022-08-10T21:53:04.371Z,79.93
2022-08-10T21:56:29.711Z,80.14
2022-08-10T21:59:28.668Z,79.92
2022-08-10T22:02:28.214Z,78.53
2022-08-10T22:05:20.163Z,78.19
2022-08-10T22:08:12.772Z,77.95
2022-08-10T22:11:13.382Z,77.95
2022-08-10T22:14:06.474Z,77.80
2022-08-10T22:18:10.541Z,77.85
2022-08-10T22:20:06.585Z,78.15
2022-08-10T22:23:11.354Z,78.57
2022-08-10T22:26:33.669Z,78.79
2022-08-10T22:29:42.321Z,78.70
2022-08-10T22:32:42.390Z,78.69
2022-08-10T22:36:04.475Z,79.40
2022-08-10T22:40:10.828Z,79.85
2022-08-10T22:42:59.143Z,79.55
2022-08-10T22:45:34.030Z,79.73
2022-08-10T22:48:24.744Z,80.27
2022-08-10T22:50:56.398Z,81.06
2022-08-10T22:54:10.839Z,81.50
2022-08-10T22:56:59.834Z,81.99
2022-08-10T22:59:30.947Z,82.44
2022-08-10T23:02:12.148Z,82.57
2022-08-10T23:05:00.222Z,82.19
2022-08-10T23:07:34.515Z,82.11
2022-08-10T23:10:10.834Z,82.08
2022-08-10T23:12:54.087Z,82.04
2022-08-10T23:15:49.200Z,81.81
2022-08-10T23:18:47.790Z,81.49
2022-08-10T23:21:18.822Z,81.03
2022-08-10T23:23:48.666Z,80.90
2022-08-10T23:26:27.295Z,80.58
2022-08-10T23:28:59.928Z,80.32
2022-08-10T23:31:50.235Z,80.37
2022-08-10T23:34:00.100Z,80.43
2022-08-10T23:36:35.642Z,80.72
2022-08-10T23:39:26.415Z,80.92
2022-08-10T23:41:40.858Z,81.06
2022-08-10T23:44:13.171Z,81.21
2022-08-10T23:46:46.655Z,81.55
2022-08-10T23:49:16.718Z,81.50
2022-08-10T23:51:55.379Z,81.41
2022-08-10T23:54:21.820Z,81.50
2022-08-10T23:56:56.881Z,81.96
2022-08-10T23:59:29.732Z,82.51
